Time;durP1;ratioP1;P1;durP2;ratioP2;P2;SDS_P1;SDS_P2;PMS_P1;PMS_P2;Temp;Humidity;BMP_temperature;BMP_pressure;BME280_temperature;BME280_humidity;BME280_pressure;Samples;Min_cycle;Max_cycle;Signal;HPM_P1;HPM_P2
2022/06/03 00:00:25;;;;;;;;;;;;;;;11.67;64.45;100767.77;106255;1281;125097;-69
2022/06/03 00:03:16;;;;;;;;;;;;;;;11.66;64.46;100769.55;106287;1264;112644;-69
2022/06/03 00:05:59;;;;;;;;;;;;;;;11.63;64.56;100771.55;106164;1273;126046;-69
2022/06/03 00:08:45;;;;;;;;;;;;;;;11.61;64.72;100775.95;106197;1273;108469;-71
2022/06/03 00:11:25;;;;;;;;;;;;;;;11.58;64.79;100777.45;106184;1273;124507;-69
2022/06/03 00:14:17;;;;;;;;;;;;;;;11.56;64.78;100780.99;106263;1273;98549;-70
2022/06/03 00:16:50;;;;;;;;;;;;;;;11.54;64.91;100777.05;106176;1273;124554;-69
2022/06/03 00:19:28;;;;;;;;;;;;;;;11.51;64.91;100777.46;106253;1274;108245;-70
2022/06/03 00:22:13;;;;;;;;;;;;;;;11.48;65.10;100774.56;106819;1273;107410;-69
2022/06/03 00:24:58;;;;;;;;;;;;;;;11.46;65.15;100778.64;106298;1274;97933;-69
2022/06/03 00:27:35;;;;;;;;;;;;;;;11.45;65.19;100776.92;106304;1273;97852;-69
2022/06/03 00:30:08;;;;;;;;;;;;;;;11.44;65.25;100775.02;106247;1273;124149;-68
2022/06/03 00:32:43;;;;;;;;;;;;;;;11.43;65.22;100771.39;106273;1273;108937;-69
2022/06/03 00:35:24;;;;;;;;;;;;;;;11.43;65.26;100778.20;106272;1274;124386;-68
2022/06/03 00:37:55;;;;;;;;;;;;;;;11.41;65.26;100774.94;106307;1273;97844;-69
2022/06/03 00:40:32;;;;;;;;;;;;;;;11.40;65.34;100774.27;106294;1273;124763;-69
2022/06/03 00:43:17;;;;;;;;;;;;;;;11.39;65.33;100774.29;106336;1273;111987;-69
2022/06/03 00:45:55;;;;;;;;;;;;;;;11.38;65.37;100772.59;106343;1273;107817;-69
2022/06/03 00:48:31;;;;;;;;;;;;;;;11.37;65.38;100772.61;106178;1273;124156;-69
2022/06/03 00:51:12;;;;;;;;;;;;;;;11.37;65.42;100772.27;106257;1271;97911;-68
2022/06/03 00:53:55;;;;;;;;;;;;;;;11.37;65.48;100776.81;106183;1273;124195;-68
2022/06/03 00:56:37;;;;;;;;;;;;;;;11.35;65.60;100775.48;106246;1273;111978;-69
2022/06/03 00:59:11;;;;;;;;;;;;;;;11.34;65.59;100773.92;106200;1273;124447;-69
2022/06/03 01:01:43;;;;;;;;;;;;;;;11.34;65.68;100774.45;106252;1273;108472;-69
2022/06/03 01:04:20;;;;;;;;;;;;;;;11.34;65.59;100777.59;106195;1274;124520;-69
2022/06/03 01:06:54;;;;;;;;;;;;;;;11.32;65.71;100779.73;106300;1274;97841;-69
2022/06/03 01:09:29;;;;;;;;;;;;;;;11.30;65.76;100779.58;106287;1274;112547;-69
2022/06/03 01:12:15;;;;;;;;;;;;;;;11.29;65.61;100782.39;106171;1274;124731;-69
2022/06/03 01:14:51;;;;;;;;;;;;;;;11.28;65.79;100781.21;106245;1274;108573;-69
2022/06/03 01:17:27;;;;;;;;;;;;;;;11.24;65.71;100783.40;106126;1274;124572;-71
2022/06/03 01:20:01;;;;;;;;;;;;;;;11.21;65.89;100783.83;106215;1274;98179;-69
2022/06/03 01:22:36;;;;;;;;;;;;;;;11.19;65.91;100785.29;106207;1274;124481;-70
2022/06/03 01:25:21;;;;;;;;;;;;;;;11.17;65.92;100786.56;106280;1274;108684;-70
2022/06/03 01:28:03;;;;;;;;;;;;;;;11.14;65.96;100784.04;106303;1275;108696;-69
2022/06/03 01:30:42;;;;;;;;;;;;;;;11.12;66.08;100783.35;106226;1274;97877;-70
2022/06/03 01:33:20;;;;;;;;;;;;;;;11.10;66.20;100783.23;106286;1274;98510;-70
2022/06/03 01:36:01;;;;;;;;;;;;;;;11.08;66.13;100781.03;106171;1274;124221;-69
2022/06/03 01:38:42;;;;;;;;;;;;;;;11.07;66.24;100781.23;106305;1274;108194;-70
2022/06/03 01:41:16;;;;;;;;;;;;;;;11.07;66.34;100782.27;106121;1274;124339;-70
2022/06/03 01:43:54;;;;;;;;;;;;;;;11.06;66.35;100779.88;106282;1274;97889;-69
2022/06/03 01:46:28;;;;;;;;;;;;;;;11.04;66.40;100774.52;106319;1274;125214;-69
2022/06/03 01:49:16;;;;;;;;;;;;;;;11.04;66.41;100774.52;106274;1274;112693;-69
2022/06/03 01:52:02;;;;;;;;;;;;;;;11.04;66.34;100772.98;106197;1274;108498;-70
2022/06/03 01:54:44;;;;;;;;;;;;;;;11.03;66.33;100773.87;106243;1274;108786;-69
2022/06/03 01:57:26;;;;;;;;;;;;;;;11.03;66.46;100772.65;106216;1274;97957;-69
2022/06/03 02:00:23;;;;;;;;;;;;;;;11.03;66.47;100769.70;106129;1274;124964;-69
2022/06/03 02:03:08;;;;;;;;;;;;;;;11.04;66.36;100771.23;105794;1281;112699;-69
2022/06/03 02:05:53;;;;;;;;;;;;;;;11.05;66.41;100771.20;105346;1284;125573;-69
2022/06/03 02:08:38;;;;;;;;;;;;;;;11.07;66.33;100770.96;105409;1284;109061;-69
2022/06/03 02:11:20;;;;;;;;;;;;;;;11.08;66.31;100769.73;105152;1285;125200;-69
2022/06/03 02:14:01;;;;;;;;;;;;;;;11.10;66.46;100772.45;105610;1285;97980;-70
2022/06/03 02:16:38;;;;;;;;;;;;;;;11.13;66.33;100772.73;105243;1285;125266;-69
2022/06/03 02:19:21;;;;;;;;;;;;;;;11.13;66.22;100773.95;105439;1285;109734;-70
2022/06/03 02:21:58;;;;;;;;;;;;;;;11.14;66.23;100778.10;105394;1284;109393;-69
2022/06/03 02:24:40;;;;;;;;;;;;;;;11.13;66.21;100777.42;105291;1284;125022;-69
2022/06/03 02:27:31;;;;;;;;;;;;;;;11.11;66.04;100776.42;105307;1285;97844;-71
2022/06/03 02:30:27;;;;;;;;;;;;;;;11.07;66.11;100774.11;105532;1285;124919;-69
2022/06/03 02:33:09;;;;;;;;;;;;;;;11.01;66.08;100778.98;105384;1285;108838;-69
2022/06/03 02:35:42;;;;;;;;;;;;;;;10.98;66.25;100774.53;105332;1284;125723;-69
2022/06/03 02:38:15;;;;;;;;;;;;;;;10.94;66.26;100775.13;105784;1279;97821;-69
2022/06/03 02:40:59;;;;;;;;;;;;;;;10.93;66.35;100774.98;105910;1279;126612;-68
2022/06/03 02:43:47;;;;;;;;;;;;;;;10.91;66.54;100778.85;106160;1274;111778;-69
2022/06/03 02:46:34;;;;;;;;;;;;;;;10.89;66.54;100775.41;106164;1274;125868;-69
2022/06/03 02:49:16;;;;;;;;;;;;;;;10.91;66.50;100775.72;106211;1274;108823;-68
2022/06/03 02:51:59;;;;;;;;;;;;;;;10.94;66.53;100777.40;106240;1274;97835;-68
2022/06/03 02:54:41;;;;;;;;;;;;;;;10.98;66.69;100783.23;106328;1276;124794;-69
2022/06/03 02:57:21;;;;;;;;;;;;;;;11.02;66.63;100784.14;106431;1274;112786;-69
2022/06/03 03:00:05;;;;;;;;;;;;;;;11.05;66.64;100787.90;106135;1274;125124;-69
2022/06/03 03:02:38;;;;;;;;;;;;;;;11.06;66.68;100794.13;106507;1274;108238;-69
2022/06/03 03:05:17;;;;;;;;;;;;;;;11.08;66.50;100796.71;106175;1274;126914;-69
2022/06/03 03:07:53;;;;;;;;;;;;;;;11.07;66.57;100802.81;106295;1274;97826;-70
2022/06/03 03:10:29;;;;;;;;;;;;;;;11.06;66.58;100805.45;106143;1274;124994;-69
2022/06/03 03:13:10;;;;;;;;;;;;;;;11.03;66.43;100806.08;106244;1274;109052;-69
2022/06/03 03:15:52;;;;;;;;;;;;;;;10.97;66.66;100808.64;106194;1274;108954;-69
2022/06/03 03:18:39;;;;;;;;;;;;;;;10.96;66.73;100810.77;106146;1274;125020;-69
2022/06/03 03:21:22;;;;;;;;;;;;;;;10.96;66.93;100815.13;106257;1274;97853;-69
2022/06/03 03:24:10;;;;;;;;;;;;;;;10.95;67.04;100821.57;106716;1274;127638;-69
2022/06/03 03:26:44;;;;;;;;;;;;;;;10.94;67.30;100823.14;106266;1274;109638;-69
2022/06/03 03:29:27;;;;;;;;;;;;;;;10.94;67.29;100824.19;106121;1274;125707;-69
2022/06/03 03:32:09;;;;;;;;;;;;;;;10.93;67.27;100827.17;106320;1274;97832;-70
2022/06/03 03:35:02;;;;;;;;;;;;;;;10.90;67.26;100829.67;106237;1274;124969;-70
2022/06/03 03:37:44;;;;;;;;;;;;;;;10.89;67.22;100831.95;106390;1274;112468;-69
2022/06/03 03:40:30;;;;;;;;;;;;;;;10.92;67.33;100833.28;106256;1274;125717;-69
2022/06/03 03:43:14;;;;;;;;;;;;;;;10.96;67.28;100835.30;106196;1274;109430;-69
2022/06/03 03:46:05;;;;;;;;;;;;;;;11.01;67.21;100838.82;106193;1274;97834;-69
2022/06/03 03:48:53;;;;;;;;;;;;;;;11.10;67.08;100842.95;106325;1274;97941;-69
2022/06/03 03:51:38;;;;;;;;;;;;;;;11.16;67.00;100846.48;106237;1274;112776;-69
2022/06/03 03:54:22;;;;;;;;;;;;;;;11.22;66.94;100849.80;106143;1274;125167;-69
2022/06/03 03:57:05;;;;;;;;;;;;;;;11.29;66.96;100854.13;106165;1274;108441;-68
2022/06/03 03:59:57;;;;;;;;;;;;;;;11.37;66.93;100859.67;106177;1274;125034;-68
2022/06/03 04:02:38;;;;;;;;;;;;;;;11.43;66.91;100858.12;106235;1274;97948;-69
2022/06/03 04:05:26;;;;;;;;;;;;;;;11.48;66.70;100861.11;106132;1274;124905;-69
2022/06/03 04:08:08;;;;;;;;;;;;;;;11.54;66.64;100861.69;106210;1274;109644;-69
2022/06/03 04:10:48;;;;;;;;;;;;;;;11.59;66.47;100860.14;105533;1282;125296;-69
2022/06/03 04:13:37;;;;;;;;;;;;;;;11.64;66.32;100860.88;105670;1282;97885;-70
2022/06/03 04:16:23;;;;;;;;;;;;;;;11.69;66.12;100851.88;105576;1282;125950;-68
2022/06/03 04:19:05;;;;;;;;;;;;;;;11.76;66.07;100853.76;105935;1281;112597;-69
2022/06/03 04:21:58;;;;;;;;;;;;;;;11.85;66.05;100858.77;105594;1282;108994;-68
2022/06/03 04:24:40;;;;;;;;;;;;;;;11.96;66.05;100861.43;105768;1281;126063;-69
2022/06/03 04:27:22;;;;;;;;;;;;;;;12.08;65.77;100865.63;105617;1282;98563;-69
2022/06/03 04:30:05;;;;;;;;;;;;;;;12.20;65.71;100864.76;105116;1285;125311;-69
2022/06/03 04:32:53;;;;;;;;;;;;;;;12.32;65.47;100859.16;105518;1287;112406;-68
2022/06/03 04:35:50;;;;;;;;;;;;;;;12.45;65.34;100864.01;105261;1287;125183;-68
2022/06/03 04:38:35;;;;;;;;;;;;;;;12.58;64.92;100869.70;105182;1287;109369;-69
2022/06/03 04:41:32;;;;;;;;;;;;;;;12.68;64.60;100878.80;105777;1285;125213;-70
2022/06/03 04:44:20;;;;;;;;;;;;;;;12.82;64.17;100878.59;105233;1293;97843;-69
2022/06/03 04:47:07;;;;;;;;;;;;;;;12.94;63.90;100872.45;104452;1293;125952;-68
2022/06/03 04:50:01;;;;;;;;;;;;;;;13.06;63.84;100869.24;104675;1291;108501;-70
2022/06/03 04:53:06;;;;;;;;;;;;;;;13.23;63.52;100874.84;104632;1291;125274;-70
2022/06/03 04:56:08;;;;;;;;;;;;;;;13.38;63.19;100882.21;104693;1291;97991;-68
2022/06/03 04:58:59;;;;;;;;;;;;;;;13.54;62.98;100881.84;104601;1291;125305;-70
2022/06/03 05:01:47;;;;;;;;;;;;;;;13.69;62.83;100884.44;104730;1290;112221;-69
2022/06/03 05:04:32;;;;;;;;;;;;;;;13.85;62.64;100883.36;105069;1294;125726;-69
2022/06/03 05:07:19;;;;;;;;;;;;;;;14.01;62.18;100878.58;104372;1291;108457;-69
2022/06/03 05:10:03;;;;;;;;;;;;;;;14.22;61.99;100878.33;104747;1290;98243;-70
2022/06/03 05:12:48;;;;;;;;;;;;;;;14.44;61.43;100882.23;104926;1290;97958;-69
2022/06/03 05:15:33;;;;;;;;;;;;;;;14.68;60.95;100884.86;104761;1290;112730;-69
2022/06/03 05:18:19;;;;;;;;;;;;;;;14.95;60.25;100882.35;104920;1285;124892;-69
2022/06/03 05:21:06;;;;;;;;;;;;;;;15.30;59.63;100887.09;105496;1285;109386;-69
2022/06/03 05:23:48;;;;;;;;;;;;;;;15.62;58.44;100888.20;105134;1285;125238;-69
2022/06/03 05:26:30;;;;;;;;;;;;;;;15.90;57.63;100888.59;105514;1282;97878;-69
2022/06/03 05:29:13;;;;;;;;;;;;;;;16.17;56.82;100887.17;105948;1281;124174;-67
2022/06/03 05:31:55;;;;;;;;;;;;;;;16.43;55.74;100892.88;105866;1281;109164;-70
2022/06/03 05:34:40;;;;;;;;;;;;;;;16.64;55.23;100888.17;105796;1281;124718;-70
2022/06/03 05:37:21;;;;;;;;;;;;;;;16.86;54.34;100891.21;106130;1281;97865;-70
2022/06/03 05:39:58;;;;;;;;;;;;;;;17.06;53.41;100891.25;105277;1285;97847;-68
2022/06/03 05:42:43;;;;;;;;;;;;;;;17.30;53.06;100895.02;105852;1280;125322;-69
2022/06/03 05:45:27;;;;;;;;;;;;;;;17.68;52.59;100895.73;105447;1285;108866;-69
2022/06/03 05:47:57;;;;;;;;;;;;;;;18.21;51.23;100891.04;105334;1285;124518;-68
2022/06/03 05:50:30;;;;;;;;;;;;;;;19.36;51.38;100881.73;105481;1285;97959;-69
2022/06/03 05:53:07;;;;;;;;;;;;;;;21.64;49.53;100876.11;105379;1285;124824;-69
2022/06/03 05:55:40;;;;;;;;;;;;;;;23.86;45.52;100871.30;105523;1285;111508;-70
2022/06/03 05:58:18;;;;;;;;;;;;;;;25.62;42.10;100862.67;105064;1287;125517;-68
2022/06/03 06:00:54;;;;;;;;;;;;;;;27.11;39.28;100860.36;105405;1287;109276;-69
2022/06/03 06:03:30;;;;;;;;;;;;;;;28.31;36.04;100863.31;105566;1285;97824;-68
2022/06/03 06:06:08;;;;;;;;;;;;;;;29.34;34.84;100865.47;105228;1285;124818;-70
2022/06/03 06:08:43;;;;;;;;;;;;;;;30.26;33.21;100865.02;105452;1285;112337;-68
2022/06/03 06:11:15;;;;;;;;;;;;;;;30.92;31.40;100861.98;105965;1285;124987;-69
2022/06/03 06:14:00;;;;;;;;;;;;;;;31.61;31.05;100861.79;105490;1285;109118;-68
2022/06/03 06:16:31;;;;;;;;;;;;;;;32.47;30.36;100857.41;105238;1285;124697;-69
2022/06/03 06:19:02;;;;;;;;;;;;;;;33.40;28.34;100864.89;105914;1281;95800;-68
2022/06/03 06:21:33;;;;;;;;;;;;;;;33.94;27.54;100864.68;105944;1281;112181;-68
2022/06/03 06:24:08;;;;;;;;;;;;;;;34.36;26.31;100864.35;106240;1274;124463;-68
2022/06/03 06:26:53;;;;;;;;;;;;;;;34.71;25.27;100867.15;106330;1274;109608;-69
2022/06/03 06:29:40;;;;;;;;;;;;;;;35.01;24.86;100861.77;106623;1274;124741;-68
2022/06/03 06:32:23;;;;;;;;;;;;;;;35.25;23.31;100861.51;106819;1274;97718;-68
2022/06/03 06:35:00;;;;;;;;;;;;;;;35.24;23.12;100862.38;106171;1274;124124;-68
2022/06/03 06:37:42;;;;;;;;;;;;;;;35.28;23.13;100862.45;106327;1274;108889;-69
2022/06/03 06:40:14;;;;;;;;;;;;;;;35.68;23.13;100859.61;106377;1274;124484;-68
2022/06/03 06:42:47;;;;;;;;;;;;;;;36.14;22.22;100858.53;106517;1274;97948;-69
2022/06/03 06:45:27;;;;;;;;;;;;;;;36.19;21.04;100865.54;106357;1274;97947;-70
2022/06/03 06:48:00;;;;;;;;;;;;;;;35.96;20.70;100863.20;106234;1275;124875;-69
2022/06/03 06:50:33;;;;;;;;;;;;;;;35.70;20.64;100861.21;106453;1275;109012;-69
2022/06/03 06:53:04;;;;;;;;;;;;;;;35.46;20.84;100865.20;106379;1274;124368;-69
2022/06/03 06:55:39;;;;;;;;;;;;;;;35.59;21.35;100864.09;106613;1274;97710;-69
2022/06/03 06:58:20;;;;;;;;;;;;;;;35.64;20.71;100869.05;107198;1274;124421;-68
2022/06/03 07:00:49;;;;;;;;;;;;;;;35.59;20.61;100863.98;106432;1274;112499;-69
2022/06/03 07:03:21;;;;;;;;;;;;;;;35.39;20.00;100862.97;106273;1274;109010;-68
2022/06/03 07:05:52;;;;;;;;;;;;;;;35.20;20.97;100859.79;106309;1274;124563;-69
2022/06/03 07:08:21;;;;;;;;;;;;;;;35.49;20.64;100854.84;106235;1274;97746;-68
2022/06/03 07:10:51;;;;;;;;;;;;;;;35.99;20.92;100857.09;106281;1274;124116;-68
2022/06/03 07:13:22;;;;;;;;;;;;;;;36.44;20.38;100851.87;106383;1276;111318;-69
2022/06/03 07:15:56;;;;;;;;;;;;;;;36.67;20.09;100856.80;106301;1274;109160;-68
2022/06/03 07:21:19;;;;;;;;;;;;;;;36.86;19.75;100845.62;106263;1274;97795;-68
2022/06/03 07:23:48;;;;;;;;;;;;;;;37.05;19.16;100844.64;106427;1274;124353;-69
2022/06/03 07:26:22;;;;;;;;;;;;;;;36.94;19.05;100842.98;106480;1274;111494;-69
2022/06/03 07:28:54;;;;;;;;;;;;;;;37.22;18.74;100844.05;106483;1274;124438;-69
2022/06/03 07:31:24;;;;;;;;;;;;;;;37.79;19.37;100843.65;106506;1274;108997;-68
2022/06/03 07:33:57;;;;;;;;;;;;;;;38.07;18.75;100843.04;106718;1274;96634;-68
2022/06/03 07:36:30;;;;;;;;;;;;;;;37.87;18.67;100843.48;106515;1274;124005;-68
2022/06/03 07:39:01;;;;;;;;;;;;;;;37.93;18.50;100845.94;106279;1274;112555;-68
2022/06/03 07:41:31;;;;;;;;;;;;;;;37.83;18.34;100845.46;106237;1274;124336;-67
2022/06/03 07:44:02;;;;;;;;;;;;;;;37.65;18.07;100848.73;107181;1274;109002;-68
2022/06/03 07:46:36;;;;;;;;;;;;;;;37.16;18.68;100842.38;107634;1274;124661;-68
2022/06/03 07:49:04;;;;;;;;;;;;;;;37.47;18.89;100844.45;107385;1274;97112;-69
2022/06/03 07:51:36;;;;;;;;;;;;;;;37.45;18.60;100845.54;106866;1274;111361;-68
2022/06/03 07:54:05;;;;;;;;;;;;;;;36.33;18.91;100844.10;106730;1274;126082;-68
2022/06/03 07:56:34;;;;;;;;;;;;;;;35.04;19.14;100848.06;106281;1274;109359;-69
2022/06/03 07:59:04;;;;;;;;;;;;;;;33.81;19.55;100850.70;107127;1274;124312;-69
2022/06/03 08:01:34;;;;;;;;;;;;;;;33.85;20.15;100849.84;106568;1274;97832;-67
2022/06/03 08:04:02;;;;;;;;;;;;;;;34.49;19.74;100848.75;106245;1274;112784;-68
2022/06/03 08:10:56;;;;;;;;;;;;;;;34.89;18.79;100849.70;106309;1274;107949;-68
2022/06/03 08:12:08;;;;;;;;;;;;;;;35.77;19.75;100842.23;106166;1274;124501;-68
2022/06/03 08:14:36;;;;;;;;;;;;;;;36.27;18.22;100848.83;106481;1274;97723;-69
2022/06/03 08:17:06;;;;;;;;;;;;;;;35.77;18.18;100848.73;106480;1275;124201;-67
2022/06/03 08:19:35;;;;;;;;;;;;;;;36.00;18.65;100852.52;106234;1274;108044;-69
2022/06/03 08:22:04;;;;;;;;;;;;;;;36.14;18.46;100847.63;107018;1274;108819;-68
2022/06/03 08:24:34;;;;;;;;;;;;;;;36.36;17.99;100851.17;107329;1274;97917;-66
2022/06/03 08:27:04;;;;;;;;;;;;;;;36.21;18.20;100844.94;106268;1274;97848;-69
2022/06/03 08:29:35;;;;;;;;;;;;;;;36.19;18.26;100842.55;106368;1274;124261;-68
2022/06/03 08:32:06;;;;;;;;;;;;;;;36.02;17.86;100847.23;106441;1274;107732;-67
2022/06/03 08:34:38;;;;;;;;;;;;;;;35.82;17.77;100838.88;106608;1274;124512;-68
2022/06/03 08:37:06;;;;;;;;;;;;;;;35.52;17.62;100835.86;106317;1274;97831;-68
2022/06/03 08:39:34;;;;;;;;;;;;;;;34.52;17.89;100835.48;106977;1275;97704;-68
2022/06/03 08:42:20;;;;;;;;;;;;;;;33.16;18.66;100837.42;106263;1275;125456;-68
2022/06/03 08:44:53;;;;;;;;;;;;;;;32.09;19.92;100837.83;106472;1274;108979;-68
2022/06/03 08:47:22;;;;;;;;;;;;;;;31.61;20.66;100834.41;106393;1274;124405;-68
2022/06/03 08:50:00;;;;;;;;;;;;;;;31.03;20.82;100837.60;106359;1274;97828;-68
2022/06/03 08:52:35;;;;;;;;;;;;;;;29.99;21.65;100837.28;106557;1274;124389;-67
2022/06/03 08:55:05;;;;;;;;;;;;;;;29.81;22.46;100841.08;106267;1274;110852;-68
2022/06/03 08:57:37;;;;;;;;;;;;;;;30.03;22.23;100834.34;106429;1274;110086;-69
2022/06/03 09:00:09;;;;;;;;;;;;;;;30.60;22.25;100834.23;106331;1274;124274;-68
2022/06/03 09:02:40;;;;;;;;;;;;;;;30.88;22.27;100834.91;106787;1264;97839;-68
2022/06/03 09:05:12;;;;;;;;;;;;;;;30.96;22.29;100831.48;106113;1274;124220;-68
2022/06/03 09:07:44;;;;;;;;;;;;;;;30.81;21.87;100832.67;106073;1276;111492;-68
2022/06/03 09:10:17;;;;;;;;;;;;;;;30.50;22.36;100831.61;106066;1276;124679;-68
2022/06/03 09:12:51;;;;;;;;;;;;;;;30.38;22.59;100838.10;106053;1276;124937;-66
2022/06/03 09:15:21;;;;;;;;;;;;;;;30.21;22.53;100838.52;106141;1274;97804;-67
2022/06/03 09:17:52;;;;;;;;;;;;;;;29.23;22.59;100844.83;106471;1274;97924;-68
2022/06/03 09:20:22;;;;;;;;;;;;;;;28.32;23.43;100840.87;106117;1275;124442;-67
2022/06/03 09:22:51;;;;;;;;;;;;;;;27.67;23.87;100848.36;106255;1275;108362;-67
2022/06/03 09:25:19;;;;;;;;;;;;;;;27.11;24.48;100849.48;106270;1274;124678;-67
2022/06/03 09:27:48;;;;;;;;;;;;;;;27.26;24.82;100852.84;106239;1275;97849;-67
2022/06/03 09:30:18;;;;;;;;;;;;;;;27.97;25.15;100840.48;106257;1276;97835;-67
2022/06/03 09:32:49;;;;;;;;;;;;;;;28.49;25.02;100833.48;106149;1275;124145;-67
2022/06/03 09:35:17;;;;;;;;;;;;;;;28.50;24.57;100831.61;106230;1275;108974;-68
2022/06/03 09:37:47;;;;;;;;;;;;;;;28.37;24.54;100837.50;106102;1276;124339;-69
2022/06/03 09:40:18;;;;;;;;;;;;;;;28.26;25.16;100833.06;106241;1276;97876;-68
2022/06/03 09:42:49;;;;;;;;;;;;;;;27.97;24.75;100840.14;106107;1276;124716;-68
2022/06/03 09:45:20;;;;;;;;;;;;;;;27.60;25.15;100841.64;106229;1274;112716;-66
2022/06/03 09:47:48;;;;;;;;;;;;;;;27.28;25.28;100841.80;106265;1276;109002;-70
2022/06/03 09:50:17;;;;;;;;;;;;;;;27.06;25.87;100844.88;106149;1276;124786;-67
2022/06/03 09:52:48;;;;;;;;;;;;;;;26.98;25.83;100837.60;106226;1276;97851;-68
2022/06/03 09:55:26;;;;;;;;;;;;;;;27.03;26.01;100837.52;106399;1276;124528;-69
2022/06/03 09:57:56;;;;;;;;;;;;;;;27.09;26.54;100837.65;106210;1276;112653;-67
2022/06/03 10:00:26;;;;;;;;;;;;;;;27.15;26.52;100831.96;106206;1274;109148;-69
2022/06/03 10:02:53;;;;;;;;;;;;;;;27.26;26.57;100835.09;106171;1276;124275;-67
2022/06/03 10:05:21;;;;;;;;;;;;;;;27.15;25.91;100829.24;106155;1276;97869;-68
2022/06/03 10:07:57;;;;;;;;;;;;;;;27.01;26.14;100825.40;106090;1276;124165;-67
2022/06/03 10:13:11;;;;;;;;;;;;;;;28.20;25.44;100822.66;106099;1273;124510;-70
2022/06/03 10:15:41;;;;;;;;;;;;;;;28.67;25.05;100820.02;106160;1276;108774;-67
2022/06/03 10:18:15;;;;;;;;;;;;;;;28.85;24.47;100816.09;106257;1276;97843;-67
2022/06/03 10:20:43;;;;;;;;;;;;;;;28.63;24.32;100813.86;106295;1276;124162;-68
2022/06/03 10:23:11;;;;;;;;;;;;;;;28.29;24.03;100809.72;106241;1276;110772;-69
2022/06/03 10:25:41;;;;;;;;;;;;;;;27.71;24.27;100812.77;106117;1276;124334;-67
2022/06/03 10:28:10;;;;;;;;;;;;;;;27.30;24.63;100812.19;106202;1276;108427;-67
2022/06/03 10:30:40;;;;;;;;;;;;;;;27.40;25.21;100811.57;106158;1276;124771;-67
2022/06/03 10:33:15;;;;;;;;;;;;;;;27.72;25.32;100810.40;106245;1276;97827;-68
2022/06/03 10:35:43;;;;;;;;;;;;;;;27.78;25.29;100805.19;106343;1277;112775;-67
2022/06/03 10:38:15;;;;;;;;;;;;;;;27.68;25.17;100806.23;106178;1276;125466;-68
2022/06/03 10:40:46;;;;;;;;;;;;;;;27.41;25.14;100803.48;106241;1276;108949;-68
2022/06/03 10:43:20;;;;;;;;;;;;;;;27.05;25.19;100803.61;106254;1276;125789;-68
2022/06/03 10:45:48;;;;;;;;;;;;;;;27.05;25.86;100807.56;106104;1276;312983;-68
2022/06/03 10:48:20;;;;;;;;;;;;;;;27.42;25.68;100810.48;106184;1276;112223;-68
2022/06/03 10:50:47;;;;;;;;;;;;;;;27.90;25.40;100806.33;106233;1276;124921;-67
2022/06/03 11:01:55;;;;;;;;;;;;;;;29.34;25.10;100793.09;105600;1282;124516;-67
2022/06/03 11:04:24;;;;;;;;;;;;;;;29.65;25.02;100786.50;105827;1282;108903;-68
2022/06/03 11:06:52;;;;;;;;;;;;;;;29.98;24.69;100791.75;105613;1284;124551;-67
2022/06/03 11:09:19;;;;;;;;;;;;;;;30.28;24.25;100785.39;106612;1282;96054;-68
2022/06/03 11:11:50;;;;;;;;;;;;;;;30.36;23.43;100787.41;105684;1284;97728;-68
2022/06/03 11:14:26;;;;;;;;;;;;;;;30.15;23.34;100780.87;105740;1282;124108;-67
2022/06/03 11:17:02;;;;;;;;;;;;;;;29.71;22.91;100776.85;105708;1282;108865;-68
2022/06/03 11:19:34;;;;;;;;;;;;;;;29.08;23.44;100778.50;105542;1284;126576;-67
2022/06/03 11:22:19;;;;;;;;;;;;;;;28.58;24.00;100777.86;105618;1284;97856;-68
2022/06/03 11:24:51;;;;;;;;;;;;;;;28.07;24.46;100769.05;105534;1282;125501;-67
2022/06/03 11:27:21;;;;;;;;;;;;;;;27.61;24.66;100768.88;105685;1284;112154;-67
2022/06/03 11:29:50;;;;;;;;;;;;;;;27.47;24.99;100766.80;105723;1284;108971;-68
2022/06/03 11:32:18;;;;;;;;;;;;;;;27.55;25.14;100763.49;105610;1282;124593;-68
2022/06/03 11:34:49;;;;;;;;;;;;;;;27.48;24.82;100767.23;105909;1279;97891;-68
2022/06/03 11:37:19;;;;;;;;;;;;;;;27.49;25.17;100766.45;106090;1276;124430;-67
2022/06/03 11:39:52;;;;;;;;;;;;;;;27.48;25.25;100758.19;106194;1276;111858;-68
2022/06/03 11:42:22;;;;;;;;;;;;;;;27.24;25.23;100760.29;106214;1276;109035;-67
2022/06/03 11:44:53;;;;;;;;;;;;;;;26.98;25.72;100754.98;106198;1276;124150;-68
2022/06/03 11:47:23;;;;;;;;;;;;;;;26.86;25.92;100753.42;106160;1276;97853;-68
2022/06/03 11:49:51;;;;;;;;;;;;;;;26.78;26.15;100749.52;106093;1276;124147;-69
2022/06/03 11:52:18;;;;;;;;;;;;;;;26.94;26.44;100748.75;106159;1276;112519;-66
2022/06/03 11:54:47;;;;;;;;;;;;;;;27.17;26.74;100750.75;106269;1276;124518;-68
2022/06/03 11:57:17;;;;;;;;;;;;;;;27.04;25.75;100752.45;106179;1276;108384;-68
2022/06/03 11:59:50;;;;;;;;;;;;;;;26.48;25.78;100746.80;106257;1276;97904;-68
2022/06/03 12:02:21;;;;;;;;;;;;;;;26.20;26.01;100743.75;106250;1276;124194;-69
2022/06/03 12:04:50;;;;;;;;;;;;;;;25.93;26.22;100740.41;106194;1276;112825;-68
2022/06/03 12:07:25;;;;;;;;;;;;;;;25.79;26.85;100736.00;106095;1276;124659;-68
2022/06/03 12:09:56;;;;;;;;;;;;;;;25.82;27.01;100737.13;106136;1276;108458;-68
2022/06/03 12:15:40;;;;;;;;;;;;;;;25.90;26.76;100735.77;106192;1276;97833;-67
2022/06/03 12:18:37;;;;;;;;;;;;;;;25.78;27.14;100730.20;106228;1277;112478;-68
2022/06/03 12:21:07;;;;;;;;;;;;;;;25.77;27.02;100726.19;106715;1277;108499;-68
2022/06/03 12:23:49;;;;;;;;;;;;;;;25.82;27.22;100727.48;106158;1276;108703;-68
2022/06/03 12:26:22;;;;;;;;;;;;;;;25.61;26.92;100730.12;106061;1277;124342;-68
2022/06/03 12:28:50;;;;;;;;;;;;;;;25.17;27.46;100729.23;106343;1276;97834;-68
2022/06/03 12:31:29;;;;;;;;;;;;;;;24.98;27.72;100732.16;106221;1276;124899;-67
2022/06/03 12:34:05;;;;;;;;;;;;;;;24.77;28.15;100729.43;106324;1276;109388;-68
2022/06/03 12:36:37;;;;;;;;;;;;;;;24.53;28.07;100732.19;106149;1277;109017;-67
2022/06/03 12:39:19;;;;;;;;;;;;;;;24.28;28.36;100727.14;106273;1277;97836;-68
2022/06/03 12:42:02;;;;;;;;;;;;;;;24.22;28.53;100718.05;106179;1277;97836;-67
2022/06/03 12:44:41;;;;;;;;;;;;;;;24.23;29.25;100712.77;106042;1277;124653;-67
2022/06/03 12:47:27;;;;;;;;;;;;;;;24.26;29.45;100711.28;106517;1276;109030;-68
2022/06/03 12:49:55;;;;;;;;;;;;;;;24.37;29.52;100714.33;106009;1277;124335;-68
2022/06/03 12:52:37;;;;;;;;;;;;;;;24.44;29.49;100717.32;106183;1277;97846;-69
2022/06/03 12:55:08;;;;;;;;;;;;;;;24.33;28.94;100717.12;106143;1278;124584;-68
2022/06/03 12:57:41;;;;;;;;;;;;;;;24.04;28.86;100717.55;106559;1277;111799;-69
2022/06/03 13:00:13;;;;;;;;;;;;;;;23.68;28.68;100721.48;106169;1277;107130;-69
2022/06/03 13:02:49;;;;;;;;;;;;;;;23.35;29.04;100719.23;106236;1277;124524;-69
2022/06/03 13:05:27;;;;;;;;;;;;;;;23.05;29.57;100718.60;106151;1276;97845;-69
2022/06/03 13:07:59;;;;;;;;;;;;;;;22.93;30.01;100718.61;106121;1277;124178;-69
2022/06/03 13:10:32;;;;;;;;;;;;;;;22.86;30.38;100719.33;106067;1278;112600;-69
2022/06/03 13:13:20;;;;;;;;;;;;;;;22.68;30.44;100719.42;106122;1278;124528;-68
2022/06/03 13:15:50;;;;;;;;;;;;;;;22.52;30.50;100714.39;106182;1277;108440;-68
2022/06/03 13:18:33;;;;;;;;;;;;;;;22.40;30.60;100713.41;106207;1277;97806;-69
2022/06/03 13:21:16;;;;;;;;;;;;;;;22.27;30.89;100707.38;106899;1276;96312;-69
2022/06/03 13:23:54;;;;;;;;;;;;;;;22.27;31.05;100707.96;106102;1278;112693;-69
2022/06/03 13:26:40;;;;;;;;;;;;;;;22.37;31.09;100702.59;106095;1277;124843;-68
2022/06/03 13:29:09;;;;;;;;;;;;;;;22.61;31.16;100699.20;106153;1277;106447;-68